sensor_id;sensor_type;location;lat;lon;timestamp;P1;P2;P0
73917;PMS5003;63639;52.280;5.162;2022-10-16T00:01:32;3;3;
73917;PMS5003;63639;52.280;5.162;2022-10-16T00:03:59;4;4;
73917;PMS5003;63639;52.280;5.162;2022-10-16T00:06:27;3;3;
73917;PMS5003;63639;52.280;5.162;2022-10-16T00:08:55;5;4;
73917;PMS5003;63639;52.280;5.162;2022-10-16T00:11:23;4;4;
73917;PMS5003;63639;52.280;5.162;2022-10-16T00:13:54;4;4;
73917;PMS5003;63639;52.280;5.162;2022-10-16T00:16:23;4;4;
73917;PMS5003;63639;52.280;5.162;2022-10-16T00:18:50;4;4;
73917;PMS5003;63639;52.280;5.162;2022-10-16T00:21:18;3;3;
73917;PMS5003;63639;52.280;5.162;2022-10-16T00:23:46;3;3;
73917;PMS5003;63639;52.280;5.162;2022-10-16T00:26:17;3;3;
73917;PMS5003;63639;52.280;5.162;2022-10-16T00:28:45;5;5;
73917;PMS5003;63639;52.280;5.162;2022-10-16T00:31:12;5;4;
73917;PMS5003;63639;52.280;5.162;2022-10-16T00:33:39;4;4;
73917;PMS5003;63639;52.280;5.162;2022-10-16T00:36:07;3;3;
73917;PMS5003;63639;52.280;5.162;2022-10-16T00:38:37;8;5;
73917;PMS5003;63639;52.280;5.162;2022-10-16T00:41:04;4;3;
73917;PMS5003;63639;52.280;5.162;2022-10-16T00:43:34;3;3;
73917;PMS5003;63639;52.280;5.162;2022-10-16T00:46:03;4;4;
73917;PMS5003;63639;52.280;5.162;2022-10-16T00:48:36;3;3;
73917;PMS5003;63639;52.280;5.162;2022-10-16T00:51:03;4;3;
73917;PMS5003;63639;52.280;5.162;2022-10-16T00:53:32;4;4;
73917;PMS5003;63639;52.280;5.162;2022-10-16T00:55:59;4;4;
73917;PMS5003;63639;52.280;5.162;2022-10-16T00:58:27;5;4;
73917;PMS5003;63639;52.280;5.162;2022-10-16T01:02:34;3;3;
73917;PMS5003;63639;52.280;5.162;2022-10-16T01:05:01;4;2;
73917;PMS5003;63639;52.280;5.162;2022-10-16T01:07:32;4;4;
73917;PMS5003;63639;52.280;5.162;2022-10-16T01:10:09;4;4;
73917;PMS5003;63639;52.280;5.162;2022-10-16T01:12:45;3;3;
73917;PMS5003;63639;52.280;5.162;2022-10-16T01:15:17;5;4;
73917;PMS5003;63639;52.280;5.162;2022-10-16T01:17:51;5;5;
73917;PMS5003;63639;52.280;5.162;2022-10-16T01:20:25;5;4;
73917;PMS5003;63639;52.280;5.162;2022-10-16T01:22:58;4;4;
73917;PMS5003;63639;52.280;5.162;2022-10-16T01:25:39;3;3;
73917;PMS5003;63639;52.280;5.162;2022-10-16T01:28:21;4;4;
73917;PMS5003;63639;52.280;5.162;2022-10-16T01:30:53;5;3;
73917;PMS5003;63639;52.280;5.162;2022-10-16T01:33:24;5;4;
73917;PMS5003;63639;52.280;5.162;2022-10-16T01:35:56;3;3;
73917;PMS5003;63639;52.280;5.162;2022-10-16T01:38:30;5;4;
73917;PMS5003;63639;52.280;5.162;2022-10-16T01:41:06;8;5;
73917;PMS5003;63639;52.280;5.162;2022-10-16T01:43:37;5;4;
73917;PMS5003;63639;52.280;5.162;2022-10-16T01:46:08;4;4;
73917;PMS5003;63639;52.280;5.162;2022-10-16T01:48:37;3;3;
73917;PMS5003;63639;52.280;5.162;2022-10-16T01:51:08;4;4;
73917;PMS5003;63639;52.280;5.162;2022-10-16T01:53:38;3;3;
73917;PMS5003;63639;52.280;5.162;2022-10-16T01:56:07;4;4;
73917;PMS5003;63639;52.280;5.162;2022-10-16T01:58:37;5;5;
73917;PMS5003;63639;52.280;5.162;2022-10-16T02:01:10;4;4;
73917;PMS5003;63639;52.280;5.162;2022-10-16T02:03:41;7;6;
73917;PMS5003;63639;52.280;5.162;2022-10-16T02:06:11;4;4;
73917;PMS5003;63639;52.280;5.162;2022-10-16T02:08:38;5;5;
73917;PMS5003;63639;52.280;5.162;2022-10-16T02:11:06;5;5;
73917;PMS5003;63639;52.280;5.162;2022-10-16T02:13:34;5;5;
73917;PMS5003;63639;52.280;5.162;2022-10-16T02:13:39;5;5;
73917;PMS5003;63639;52.280;5.162;2022-10-16T02:13:53;5;5;
73917;PMS5003;63639;52.280;5.162;2022-10-16T02:16:32;3;3;
73917;PMS5003;63639;52.280;5.162;2022-10-16T02:19:00;4;4;
73917;PMS5003;63639;52.280;5.162;2022-10-16T02:21:33;4;4;
73917;PMS5003;63639;52.280;5.162;2022-10-16T02:24:08;4;4;
73917;PMS5003;63639;52.280;5.162;2022-10-16T02:26:40;4;4;
73917;PMS5003;63639;52.280;5.162;2022-10-16T02:29:14;4;4;
73917;PMS5003;63639;52.280;5.162;2022-10-16T02:31:44;6;5;
73917;PMS5003;63639;52.280;5.162;2022-10-16T02:34:16;5;5;
73917;PMS5003;63639;52.280;5.162;2022-10-16T02:36:48;4;4;
73917;PMS5003;63639;52.280;5.162;2022-10-16T02:39:17;3;3;
73917;PMS5003;63639;52.280;5.162;2022-10-16T02:41:44;3;3;
73917;PMS5003;63639;52.280;5.162;2022-10-16T02:44:11;4;4;
73917;PMS5003;63639;52.280;5.162;2022-10-16T02:46:39;5;5;
73917;PMS5003;63639;52.280;5.162;2022-10-16T02:49:11;4;4;
73917;PMS5003;63639;52.280;5.162;2022-10-16T02:51:38;4;4;
73917;PMS5003;63639;52.280;5.162;2022-10-16T02:54:05;5;5;
73917;PMS5003;63639;52.280;5.162;2022-10-16T02:56:33;5;5;
73917;PMS5003;63639;52.280;5.162;2022-10-16T02:59:00;5;5;
73917;PMS5003;63639;52.280;5.162;2022-10-16T03:01:32;7;5;
73917;PMS5003;63639;52.280;5.162;2022-10-16T03:03:59;7;5;
73917;PMS5003;63639;52.280;5.162;2022-10-16T03:06:27;6;6;
73917;PMS5003;63639;52.280;5.162;2022-10-16T03:08:55;5;5;
73917;PMS5003;63639;52.280;5.162;2022-10-16T03:11:22;6;5;
73917;PMS5003;63639;52.280;5.162;2022-10-16T03:13:49;5;5;
73917;PMS5003;63639;52.280;5.162;2022-10-16T03:16:17;4;4;
73917;PMS5003;63639;52.280;5.162;2022-10-16T03:18:47;6;4;
73917;PMS5003;63639;52.280;5.162;2022-10-16T03:21:14;7;7;
73917;PMS5003;63639;52.280;5.162;2022-10-16T03:23:42;6;5;
73917;PMS5003;63639;52.280;5.162;2022-10-16T03:26:09;5;4;
73917;PMS5003;63639;52.280;5.162;2022-10-16T03:28:38;6;6;
73917;PMS5003;63639;52.280;5.162;2022-10-16T03:31:05;6;6;
73917;PMS5003;63639;52.280;5.162;2022-10-16T03:33:32;4;4;
73917;PMS5003;63639;52.280;5.162;2022-10-16T03:35:59;5;5;
73917;PMS5003;63639;52.280;5.162;2022-10-16T03:38:27;5;5;
73917;PMS5003;63639;52.280;5.162;2022-10-16T03:40:54;8;7;
73917;PMS5003;63639;52.280;5.162;2022-10-16T03:43:21;5;5;
73917;PMS5003;63639;52.280;5.162;2022-10-16T03:45:49;6;6;
73917;PMS5003;63639;52.280;5.162;2022-10-16T03:48:16;6;6;
73917;PMS5003;63639;52.280;5.162;2022-10-16T03:50:44;4;4;
73917;PMS5003;63639;52.280;5.162;2022-10-16T03:53:12;4;4;
73917;PMS5003;63639;52.280;5.162;2022-10-16T03:55:44;4;4;
73917;PMS5003;63639;52.280;5.162;2022-10-16T03:58:10;4;4;
73917;PMS5003;63639;52.280;5.162;2022-10-16T04:00:39;4;4;
73917;PMS5003;63639;52.280;5.162;2022-10-16T04:03:06;6;6;
73917;PMS5003;63639;52.280;5.162;2022-10-16T04:05:34;5;5;
73917;PMS5003;63639;52.280;5.162;2022-10-16T04:08:01;5;5;
73917;PMS5003;63639;52.280;5.162;2022-10-16T04:10:28;6;6;
73917;PMS5003;63639;52.280;5.162;2022-10-16T04:13:00;4;4;
73917;PMS5003;63639;52.280;5.162;2022-10-16T04:15:27;5;5;
73917;PMS5003;63639;52.280;5.162;2022-10-16T04:17:55;5;5;
73917;PMS5003;63639;52.280;5.162;2022-10-16T04:20:22;4;4;
73917;PMS5003;63639;52.280;5.162;2022-10-16T04:22:49;4;4;
73917;PMS5003;63639;52.280;5.162;2022-10-16T04:25:17;4;4;
73917;PMS5003;63639;52.280;5.162;2022-10-16T04:27:45;5;5;
73917;PMS5003;63639;52.280;5.162;2022-10-16T04:30:12;4;4;
73917;PMS5003;63639;52.280;5.162;2022-10-16T04:32:47;5;5;
73917;PMS5003;63639;52.280;5.162;2022-10-16T04:35:15;5;5;
73917;PMS5003;63639;52.280;5.162;2022-10-16T04:37:42;4;4;
73917;PMS5003;63639;52.280;5.162;2022-10-16T04:40:09;5;4;
73917;PMS5003;63639;52.280;5.162;2022-10-16T04:42:37;4;4;
73917;PMS5003;63639;52.280;5.162;2022-10-16T04:45:05;5;3;
73917;PMS5003;63639;52.280;5.162;2022-10-16T04:47:37;4;4;
73917;PMS5003;63639;52.280;5.162;2022-10-16T04:50:04;4;4;
73917;PMS5003;63639;52.280;5.162;2022-10-16T04:52:33;5;5;
73917;PMS5003;63639;52.280;5.162;2022-10-16T04:55:00;5;4;
73917;PMS5003;63639;52.280;5.162;2022-10-16T04:57:32;5;5;
73917;PMS5003;63639;52.280;5.162;2022-10-16T04:59:59;2;2;
73917;PMS5003;63639;52.280;5.162;2022-10-16T05:02:32;5;5;
73917;PMS5003;63639;52.280;5.162;2022-10-16T05:04:59;4;4;
73917;PMS5003;63639;52.280;5.162;2022-10-16T05:07:25;6;5;
73917;PMS5003;63639;52.280;5.162;2022-10-16T05:09:57;4;4;
73917;PMS5003;63639;52.280;5.162;2022-10-16T05:12:29;5;5;
73917;PMS5003;63639;52.280;5.162;2022-10-16T05:14:57;7;5;
73917;PMS5003;63639;52.280;5.162;2022-10-16T05:17:24;5;5;
73917;PMS5003;63639;52.280;5.162;2022-10-16T05:19:52;4;4;
73917;PMS5003;63639;52.280;5.162;2022-10-16T05:22:19;4;4;
73917;PMS5003;63639;52.280;5.162;2022-10-16T05:24:52;5;5;
73917;PMS5003;63639;52.280;5.162;2022-10-16T05:27:20;3;3;
73917;PMS5003;63639;52.280;5.162;2022-10-16T05:29:48;7;6;
73917;PMS5003;63639;52.280;5.162;2022-10-16T05:32:20;3;3;
73917;PMS5003;63639;52.280;5.162;2022-10-16T05:34:48;3;3;
73917;PMS5003;63639;52.280;5.162;2022-10-16T05:37:17;4;4;
73917;PMS5003;63639;52.280;5.162;2022-10-16T05:39:43;4;4;
73917;PMS5003;63639;52.280;5.162;2022-10-16T05:42:10;4;4;
73917;PMS5003;63639;52.280;5.162;2022-10-16T05:44:37;5;5;
73917;PMS5003;63639;52.280;5.162;2022-10-16T05:47:04;3;3;
73917;PMS5003;63639;52.280;5.162;2022-10-16T05:49:31;4;4;
73917;PMS5003;63639;52.280;5.162;2022-10-16T05:52:04;3;3;
73917;PMS5003;63639;52.280;5.162;2022-10-16T05:54:32;3;3;
73917;PMS5003;63639;52.280;5.162;2022-10-16T05:57:00;7;5;
73917;PMS5003;63639;52.280;5.162;2022-10-16T05:59:43;5;5;
73917;PMS5003;63639;52.280;5.162;2022-10-16T06:02:11;4;4;
73917;PMS5003;63639;52.280;5.162;2022-10-16T06:04:42;5;5;
73917;PMS5003;63639;52.280;5.162;2022-10-16T06:07:09;4;4;
73917;PMS5003;63639;52.280;5.162;2022-10-16T06:09:36;3;3;
73917;PMS5003;63639;52.280;5.162;2022-10-16T06:12:03;4;4;
73917;PMS5003;63639;52.280;5.162;2022-10-16T06:14:31;4;4;
73917;PMS5003;63639;52.280;5.162;2022-10-16T06:16:57;7;5;
73917;PMS5003;63639;52.280;5.162;2022-10-16T06:19:25;5;4;
73917;PMS5003;63639;52.280;5.162;2022-10-16T06:21:52;3;3;
73917;PMS5003;63639;52.280;5.162;2022-10-16T06:24:18;4;4;
73917;PMS5003;63639;52.280;5.162;2022-10-16T06:26:45;7;4;
73917;PMS5003;63639;52.280;5.162;2022-10-16T06:29:12;6;4;
73917;PMS5003;63639;52.280;5.162;2022-10-16T06:31:40;6;4;
73917;PMS5003;63639;52.280;5.162;2022-10-16T06:34:08;4;4;
73917;PMS5003;63639;52.280;5.162;2022-10-16T06:36:36;4;4;
73917;PMS5003;63639;52.280;5.162;2022-10-16T06:39:04;4;4;
73917;PMS5003;63639;52.280;5.162;2022-10-16T06:41:31;4;4;
73917;PMS5003;63639;52.280;5.162;2022-10-16T06:43:59;3;3;
73917;PMS5003;63639;52.280;5.162;2022-10-16T06:46:26;7;5;
73917;PMS5003;63639;52.280;5.162;2022-10-16T06:48:53;4;4;
73917;PMS5003;63639;52.280;5.162;2022-10-16T06:51:23;4;4;
73917;PMS5003;63639;52.280;5.162;2022-10-16T06:53:52;6;5;
73917;PMS5003;63639;52.280;5.162;2022-10-16T06:56:21;6;6;
73917;PMS5003;63639;52.280;5.162;2022-10-16T06:58:50;4;4;
73917;PMS5003;63639;52.280;5.162;2022-10-16T07:01:19;1;1;
73917;PMS5003;63639;52.280;5.162;2022-10-16T07:03:47;4;4;
73917;PMS5003;63639;52.280;5.162;2022-10-16T07:06:16;4;4;
73917;PMS5003;63639;52.280;5.162;2022-10-16T07:08:45;4;4;
73917;PMS5003;63639;52.280;5.162;2022-10-16T07:11:14;6;5;
73917;PMS5003;63639;52.280;5.162;2022-10-16T07:13:48;4;4;
73917;PMS5003;63639;52.280;5.162;2022-10-16T07:16:16;6;6;
73917;PMS5003;63639;52.280;5.162;2022-10-16T07:18:44;6;5;
73917;PMS5003;63639;52.280;5.162;2022-10-16T07:21:13;5;5;
73917;PMS5003;63639;52.280;5.162;2022-10-16T07:23:41;4;4;
73917;PMS5003;63639;52.280;5.162;2022-10-16T07:26:09;5;5;
73917;PMS5003;63639;52.280;5.162;2022-10-16T07:28:37;5;5;
73917;PMS5003;63639;52.280;5.162;2022-10-16T07:31:05;5;5;
73917;PMS5003;63639;52.280;5.162;2022-10-16T07:33:34;5;5;
73917;PMS5003;63639;52.280;5.162;2022-10-16T07:36:02;2;2;
73917;PMS5003;63639;52.280;5.162;2022-10-16T07:38:29;3;3;
73917;PMS5003;63639;52.280;5.162;2022-10-16T07:40:56;4;4;
73917;PMS5003;63639;52.280;5.162;2022-10-16T07:43:24;6;5;
73917;PMS5003;63639;52.280;5.162;2022-10-16T07:45:50;5;3;
73917;PMS5003;63639;52.280;5.162;2022-10-16T07:48:19;3;3;
73917;PMS5003;63639;52.280;5.162;2022-10-16T07:50:46;4;4;
73917;PMS5003;63639;52.280;5.162;2022-10-16T07:53:13;4;4;
73917;PMS5003;63639;52.280;5.162;2022-10-16T07:55:39;4;3;
73917;PMS5003;63639;52.280;5.162;2022-10-16T07:58:06;5;5;
73917;PMS5003;63639;52.280;5.162;2022-10-16T08:00:33;3;3;
73917;PMS5003;63639;52.280;5.162;2022-10-16T08:03:00;6;3;
73917;PMS5003;63639;52.280;5.162;2022-10-16T08:05:26;3;3;
73917;PMS5003;63639;52.280;5.162;2022-10-16T08:07:53;5;4;
73917;PMS5003;63639;52.280;5.162;2022-10-16T08:10:21;6;4;
73917;PMS5003;63639;52.280;5.162;2022-10-16T08:12:49;3;3;
73917;PMS5003;63639;52.280;5.162;2022-10-16T08:15:17;5;4;
73917;PMS5003;63639;52.280;5.162;2022-10-16T08:17:44;5;5;
73917;PMS5003;63639;52.280;5.162;2022-10-16T08:20:10;4;4;
73917;PMS5003;63639;52.280;5.162;2022-10-16T08:22:37;5;3;
73917;PMS5003;63639;52.280;5.162;2022-10-16T08:25:04;7;3;
73917;PMS5003;63639;52.280;5.162;2022-10-16T08:27:32;4;4;
73917;PMS5003;63639;52.280;5.162;2022-10-16T08:29:59;3;3;
73917;PMS5003;63639;52.280;5.162;2022-10-16T08:32:26;3;3;
73917;PMS5003;63639;52.280;5.162;2022-10-16T08:34:53;5;5;
73917;PMS5003;63639;52.280;5.162;2022-10-16T08:37:20;3;3;
73917;PMS5003;63639;52.280;5.162;2022-10-16T08:39:46;5;4;
73917;PMS5003;63639;52.280;5.162;2022-10-16T08:42:20;4;4;
73917;PMS5003;63639;52.280;5.162;2022-10-16T08:45:03;6;5;
73917;PMS5003;63639;52.280;5.162;2022-10-16T08:47:45;5;5;
73917;PMS5003;63639;52.280;5.162;2022-10-16T08:50:22;4;4;
73917;PMS5003;63639;52.280;5.162;2022-10-16T08:52:51;6;4;
73917;PMS5003;63639;52.280;5.162;2022-10-16T08:55:23;5;5;
73917;PMS5003;63639;52.280;5.162;2022-10-16T08:57:56;3;3;
73917;PMS5003;63639;52.280;5.162;2022-10-16T09:00:23;4;4;
73917;PMS5003;63639;52.280;5.162;2022-10-16T09:02:53;3;3;
73917;PMS5003;63639;52.280;5.162;2022-10-16T09:06:03;5;5;
73917;PMS5003;63639;52.280;5.162;2022-10-16T09:08:39;3;3;
73917;PMS5003;63639;52.280;5.162;2022-10-16T09:11:14;4;4;
73917;PMS5003;63639;52.280;5.162;2022-10-16T09:13:51;3;3;
73917;PMS5003;63639;52.280;5.162;2022-10-16T09:16:25;7;5;
73917;PMS5003;63639;52.280;5.162;2022-10-16T09:18:57;5;5;
73917;PMS5003;63639;52.280;5.162;2022-10-16T09:21:28;5;3;
73917;PMS5003;63639;52.280;5.162;2022-10-16T09:23:58;5;2;
73917;PMS5003;63639;52.280;5.162;2022-10-16T09:26:31;5;5;
73917;PMS5003;63639;52.280;5.162;2022-10-16T09:28:58;4;4;
73917;PMS5003;63639;52.280;5.162;2022-10-16T09:31:24;5;5;
73917;PMS5003;63639;52.280;5.162;2022-10-16T09:33:52;7;6;
73917;PMS5003;63639;52.280;5.162;2022-10-16T09:36:21;5;5;
73917;PMS5003;63639;52.280;5.162;2022-10-16T09:38:49;4;4;
73917;PMS5003;63639;52.280;5.162;2022-10-16T09:41:17;4;4;
73917;PMS5003;63639;52.280;5.162;2022-10-16T09:43:47;4;4;
73917;PMS5003;63639;52.280;5.162;2022-10-16T09:46:22;3;3;
73917;PMS5003;63639;52.280;5.162;2022-10-16T09:48:53;3;3;
73917;PMS5003;63639;52.280;5.162;2022-10-16T09:51:23;4;4;
73917;PMS5003;63639;52.280;5.162;2022-10-16T09:53:54;4;3;
73917;PMS5003;63639;52.280;5.162;2022-10-16T09:56:23;5;5;
73917;PMS5003;63639;52.280;5.162;2022-10-16T09:58:51;5;4;
73917;PMS5003;63639;52.280;5.162;2022-10-16T10:01:19;5;5;
73917;PMS5003;63639;52.280;5.162;2022-10-16T10:03:47;5;3;
73917;PMS5003;63639;52.280;5.162;2022-10-16T10:06:16;5;3;
73917;PMS5003;63639;52.280;5.162;2022-10-16T10:09:04;4;4;
73917;PMS5003;63639;52.280;5.162;2022-10-16T10:11:40;5;4;
73917;PMS5003;63639;52.280;5.162;2022-10-16T10:14:14;8;6;
73917;PMS5003;63639;52.280;5.162;2022-10-16T10:16:44;5;5;
73917;PMS5003;63639;52.280;5.162;2022-10-16T10:19:13;8;6;
73917;PMS5003;63639;52.280;5.162;2022-10-16T10:21:42;4;4;
73917;PMS5003;63639;52.280;5.162;2022-10-16T10:24:10;6;3;
73917;PMS5003;63639;52.280;5.162;2022-10-16T10:26:38;4;3;
73917;PMS5003;63639;52.280;5.162;2022-10-16T10:29:13;4;4;
73917;PMS5003;63639;52.280;5.162;2022-10-16T10:31:53;5;4;
73917;PMS5003;63639;52.280;5.162;2022-10-16T10:34:33;2;2;
73917;PMS5003;63639;52.280;5.162;2022-10-16T10:37:12;3;3;
73917;PMS5003;63639;52.280;5.162;2022-10-16T10:39:50;2;2;
73917;PMS5003;63639;52.280;5.162;2022-10-16T10:42:24;7;5;
73917;PMS5003;63639;52.280;5.162;2022-10-16T10:45:02;5;4;
73917;PMS5003;63639;52.280;5.162;2022-10-16T10:47:46;4;4;
73917;PMS5003;63639;52.280;5.162;2022-10-16T10:50:21;6;5;
73917;PMS5003;63639;52.280;5.162;2022-10-16T10:52:57;7;5;
73917;PMS5003;63639;52.280;5.162;2022-10-16T10:55:33;4;4;
73917;PMS5003;63639;52.280;5.162;2022-10-16T10:58:17;6;3;
73917;PMS5003;63639;52.280;5.162;2022-10-16T11:00:55;5;4;
73917;PMS5003;63639;52.280;5.162;2022-10-16T11:03:31;4;4;
73917;PMS5003;63639;52.280;5.162;2022-10-16T11:06:07;4;4;
73917;PMS5003;63639;52.280;5.162;2022-10-16T11:08:39;6;3;
73917;PMS5003;63639;52.280;5.162;2022-10-16T11:11:10;4;4;
73917;PMS5003;63639;52.280;5.162;2022-10-16T11:13:43;6;5;
73917;PMS5003;63639;52.280;5.162;2022-10-16T11:16:17;4;4;
73917;PMS5003;63639;52.280;5.162;2022-10-16T11:18:49;4;2;
73917;PMS5003;63639;52.280;5.162;2022-10-16T11:21:22;4;4;
73917;PMS5003;63639;52.280;5.162;2022-10-16T11:23:51;5;4;
73917;PMS5003;63639;52.280;5.162;2022-10-16T11:26:24;2;2;
73917;PMS5003;63639;52.280;5.162;2022-10-16T11:28:54;4;4;
73917;PMS5003;63639;52.280;5.162;2022-10-16T11:31:24;6;4;
73917;PMS5003;63639;52.280;5.162;2022-10-16T11:34:01;4;3;
73917;PMS5003;63639;52.280;5.162;2022-10-16T11:36:33;3;3;
73917;PMS5003;63639;52.280;5.162;2022-10-16T11:39:08;6;3;
73917;PMS5003;63639;52.280;5.162;2022-10-16T11:41:44;2;2;
73917;PMS5003;63639;52.280;5.162;2022-10-16T11:44:19;5;3;
73917;PMS5003;63639;52.280;5.162;2022-10-16T11:46:57;3;3;
73917;PMS5003;63639;52.280;5.162;2022-10-16T11:49:31;4;4;
73917;PMS5003;63639;52.280;5.162;2022-10-16T11:52:01;5;3;
73917;PMS5003;63639;52.280;5.162;2022-10-16T11:54:36;2;2;
73917;PMS5003;63639;52.280;5.162;2022-10-16T11:57:11;3;3;
73917;PMS5003;63639;52.280;5.162;2022-10-16T11:59:42;3;3;
73917;PMS5003;63639;52.280;5.162;2022-10-16T12:02:33;3;2;
73917;PMS5003;63639;52.280;5.162;2022-10-16T12:05:18;5;3;
73917;PMS5003;63639;52.280;5.162;2022-10-16T12:07:51;5;5;
73917;PMS5003;63639;52.280;5.162;2022-10-16T12:10:28;4;4;
73917;PMS5003;63639;52.280;5.162;2022-10-16T12:13:02;2;2;
73917;PMS5003;63639;52.280;5.162;2022-10-16T12:15:30;2;2;
73917;PMS5003;63639;52.280;5.162;2022-10-16T12:17:59;3;3;
73917;PMS5003;63639;52.280;5.162;2022-10-16T12:20:28;3;3;
73917;PMS5003;63639;52.280;5.162;2022-10-16T12:22:57;3;3;
73917;PMS5003;63639;52.280;5.162;2022-10-16T12:25:27;3;2;
73917;PMS5003;63639;52.280;5.162;2022-10-16T12:27:57;5;3;
73917;PMS5003;63639;52.280;5.162;2022-10-16T12:30:28;4;3;
73917;PMS5003;63639;52.280;5.162;2022-10-16T12:32:57;2;2;
73917;PMS5003;63639;52.280;5.162;2022-10-16T12:35:26;2;2;
73917;PMS5003;63639;52.280;5.162;2022-10-16T12:38:04;1;1;
73917;PMS5003;63639;52.280;5.162;2022-10-16T12:40:34;1;1;
73917;PMS5003;63639;52.280;5.162;2022-10-16T12:43:22;4;4;
73917;PMS5003;63639;52.280;5.162;2022-10-16T12:46:33;2;2;
73917;PMS5003;63639;52.280;5.162;2022-10-16T12:49:06;7;5;
73917;PMS5003;63639;52.280;5.162;2022-10-16T12:51:47;2;2;
73917;PMS5003;63639;52.280;5.162;2022-10-16T12:54:15;5;3;
73917;PMS5003;63639;52.280;5.162;2022-10-16T12:56:46;3;2;
73917;PMS5003;63639;52.280;5.162;2022-10-16T12:59:25;2;2;
73917;PMS5003;63639;52.280;5.162;2022-10-16T13:02:16;2;2;
73917;PMS5003;63639;52.280;5.162;2022-10-16T13:05:08;3;3;
73917;PMS5003;63639;52.280;5.162;2022-10-16T13:07:49;3;2;
73917;PMS5003;63639;52.280;5.162;2022-10-16T13:10:24;2;2;
73917;PMS5003;63639;52.280;5.162;2022-10-16T13:13:10;5;3;
73917;PMS5003;63639;52.280;5.162;2022-10-16T13:15:50;5;4;
73917;PMS5003;63639;52.280;5.162;2022-10-16T13:18:26;4;3;
73917;PMS5003;63639;52.280;5.162;2022-10-16T13:21:02;3;3;
73917;PMS5003;63639;52.280;5.162;2022-10-16T13:23:38;5;3;
73917;PMS5003;63639;52.280;5.162;2022-10-16T13:26:16;3;3;
73917;PMS5003;63639;52.280;5.162;2022-10-16T13:28:58;2;2;
73917;PMS5003;63639;52.280;5.162;2022-10-16T13:31:25;5;3;
73917;PMS5003;63639;52.280;5.162;2022-10-16T13:33:52;4;2;
73917;PMS5003;63639;52.280;5.162;2022-10-16T13:36:22;2;2;
73917;PMS5003;63639;52.280;5.162;2022-10-16T13:39:00;6;3;
73917;PMS5003;63639;52.280;5.162;2022-10-16T13:41:33;3;3;
73917;PMS5003;63639;52.280;5.162;2022-10-16T13:44:00;3;3;
73917;PMS5003;63639;52.280;5.162;2022-10-16T13:46:26;2;2;
73917;PMS5003;63639;52.280;5.162;2022-10-16T13:48:57;4;4;
73917;PMS5003;63639;52.280;5.162;2022-10-16T13:51:24;3;3;
73917;PMS5003;63639;52.280;5.162;2022-10-16T13:53:51;7;5;
73917;PMS5003;63639;52.280;5.162;2022-10-16T13:56:19;2;2;
73917;PMS5003;63639;52.280;5.162;2022-10-16T13:58:57;3;3;
73917;PMS5003;63639;52.280;5.162;2022-10-16T14:01:25;3;2;
73917;PMS5003;63639;52.280;5.162;2022-10-16T14:03:59;4;4;
73917;PMS5003;63639;52.280;5.162;2022-10-16T14:06:28;6;4;
73917;PMS5003;63639;52.280;5.162;2022-10-16T14:08:57;5;5;
73917;PMS5003;63639;52.280;5.162;2022-10-16T14:11:27;5;5;
73917;PMS5003;63639;52.280;5.162;2022-10-16T14:13:55;4;4;
73917;PMS5003;63639;52.280;5.162;2022-10-16T14:16:23;3;3;
73917;PMS5003;63639;52.280;5.162;2022-10-16T14:18:56;4;4;
73917;PMS5003;63639;52.280;5.162;2022-10-16T14:21:26;4;4;
73917;PMS5003;63639;52.280;5.162;2022-10-16T14:23:54;2;2;
73917;PMS5003;63639;52.280;5.162;2022-10-16T14:26:22;3;1;
73917;PMS5003;63639;52.280;5.162;2022-10-16T14:29:01;4;3;
73917;PMS5003;63639;52.280;5.162;2022-10-16T14:31:36;2;2;
73917;PMS5003;63639;52.280;5.162;2022-10-16T14:34:03;4;4;
73917;PMS5003;63639;52.280;5.162;2022-10-16T14:36:29;5;4;
73917;PMS5003;63639;52.280;5.162;2022-10-16T14:38:59;2;2;
73917;PMS5003;63639;52.280;5.162;2022-10-16T14:41:28;5;4;
73917;PMS5003;63639;52.280;5.162;2022-10-16T14:43:57;4;3;
73917;PMS5003;63639;52.280;5.162;2022-10-16T14:46:30;1;1;
73917;PMS5003;63639;52.280;5.162;2022-10-16T14:49:02;3;3;
73917;PMS5003;63639;52.280;5.162;2022-10-16T14:51:31;2;2;
73917;PMS5003;63639;52.280;5.162;2022-10-16T14:53:57;3;3;
73917;PMS5003;63639;52.280;5.162;2022-10-16T14:56:24;3;3;
73917;PMS5003;63639;52.280;5.162;2022-10-16T14:58:55;3;1;
73917;PMS5003;63639;52.280;5.162;2022-10-16T15:01:23;3;3;
73917;PMS5003;63639;52.280;5.162;2022-10-16T15:03:50;3;3;
73917;PMS5003;63639;52.280;5.162;2022-10-16T15:06:17;4;2;
73917;PMS5003;63639;52.280;5.162;2022-10-16T15:08:44;4;4;
73917;PMS5003;63639;52.280;5.162;2022-10-16T15:11:11;2;2;
73917;PMS5003;63639;52.280;5.162;2022-10-16T15:13:40;1;1;
73917;PMS5003;63639;52.280;5.162;2022-10-16T15:16:07;3;3;
73917;PMS5003;63639;52.280;5.162;2022-10-16T15:18:37;4;2;
73917;PMS5003;63639;52.280;5.162;2022-10-16T15:21:04;4;2;
73917;PMS5003;63639;52.280;5.162;2022-10-16T15:23:31;4;2;
73917;PMS5003;63639;52.280;5.162;2022-10-16T15:26:03;4;4;
73917;PMS5003;63639;52.280;5.162;2022-10-16T15:28:30;3;3;
73917;PMS5003;63639;52.280;5.162;2022-10-16T15:30:56;2;2;
73917;PMS5003;63639;52.280;5.162;2022-10-16T15:33:24;2;2;
73917;PMS5003;63639;52.280;5.162;2022-10-16T15:35:53;6;3;
73917;PMS5003;63639;52.280;5.162;2022-10-16T15:38:21;3;3;
73917;PMS5003;63639;52.280;5.162;2022-10-16T15:40:49;3;3;
73917;PMS5003;63639;52.280;5.162;2022-10-16T15:43:17;2;2;
73917;PMS5003;63639;52.280;5.162;2022-10-16T15:45:44;3;3;
73917;PMS5003;63639;52.280;5.162;2022-10-16T15:48:14;4;3;
73917;PMS5003;63639;52.280;5.162;2022-10-16T15:50:41;4;4;
73917;PMS5003;63639;52.280;5.162;2022-10-16T15:53:09;4;4;
73917;PMS5003;63639;52.280;5.162;2022-10-16T15:55:36;4;4;
73917;PMS5003;63639;52.280;5.162;2022-10-16T15:58:03;4;4;
73917;PMS5003;63639;52.280;5.162;2022-10-16T16:00:30;8;5;
73917;PMS5003;63639;52.280;5.162;2022-10-16T16:02:56;7;6;
73917;PMS5003;63639;52.280;5.162;2022-10-16T16:05:23;4;4;
73917;PMS5003;63639;52.280;5.162;2022-10-16T16:07:50;4;4;
73917;PMS5003;63639;52.280;5.162;2022-10-16T16:10:18;4;4;
73917;PMS5003;63639;52.280;5.162;2022-10-16T16:12:45;4;2;
73917;PMS5003;63639;52.280;5.162;2022-10-16T16:15:12;4;3;
73917;PMS5003;63639;52.280;5.162;2022-10-16T16:17:44;4;4;
73917;PMS5003;63639;52.280;5.162;2022-10-16T16:20:11;6;4;
73917;PMS5003;63639;52.280;5.162;2022-10-16T16:22:38;4;4;
73917;PMS5003;63639;52.280;5.162;2022-10-16T16:25:05;4;4;
73917;PMS5003;63639;52.280;5.162;2022-10-16T16:27:33;5;5;
73917;PMS5003;63639;52.280;5.162;2022-10-16T16:30:00;4;4;
73917;PMS5003;63639;52.280;5.162;2022-10-16T16:32:28;6;4;
73917;PMS5003;63639;52.280;5.162;2022-10-16T16:34:54;3;3;
73917;PMS5003;63639;52.280;5.162;2022-10-16T16:37:21;3;3;
73917;PMS5003;63639;52.280;5.162;2022-10-16T16:39:48;4;4;
73917;PMS5003;63639;52.280;5.162;2022-10-16T16:42:15;6;5;
73917;PMS5003;63639;52.280;5.162;2022-10-16T16:44:41;9;6;
73917;PMS5003;63639;52.280;5.162;2022-10-16T16:47:08;5;5;
73917;PMS5003;63639;52.280;5.162;2022-10-16T16:49:36;7;7;
73917;PMS5003;63639;52.280;5.162;2022-10-16T16:52:02;8;8;
73917;PMS5003;63639;52.280;5.162;2022-10-16T16:54:29;10;9;
73917;PMS5003;63639;52.280;5.162;2022-10-16T16:56:56;13;12;
73917;PMS5003;63639;52.280;5.162;2022-10-16T16:59:23;9;8;
73917;PMS5003;63639;52.280;5.162;2022-10-16T17:01:50;15;12;
73917;PMS5003;63639;52.280;5.162;2022-10-16T17:04:17;16;15;
73917;PMS5003;63639;52.280;5.162;2022-10-16T17:06:44;14;12;
73917;PMS5003;63639;52.280;5.162;2022-10-16T17:09:10;15;12;